Time;durP1;ratioP1;P1;durP2;ratioP2;P2;SDS_P1;SDS_P2;PMS_P1;PMS_P2;Temp;Humidity;BMP_temperature;BMP_pressure;BME280_temperature;BME280_humidity;BME280_pressure;Samples;Min_cycle;Max_cycle;Signal;HPM_P1;HPM_P2
2023/12/14 00:01:22;;;;;;;10.35;6.88;;;4.90;99.90;;;;;;5032746;28;20223;-75
2023/12/14 00:03:48;;;;;;;11.90;6.80;;;4.90;99.90;;;;;;5030540;28;20544;-74
2023/12/14 00:06:14;;;;;;;9.23;6.35;;;5.00;99.90;;;;;;5050146;28;20483;-74
2023/12/14 00:08:40;;;;;;;9.75;6.30;;;4.90;99.90;;;;;;5050800;28;20064;-75
2023/12/14 00:11:08;;;;;;;8.63;5.50;;;4.90;99.90;;;;;;5049724;28;20083;-74
2023/12/14 00:13:34;;;;;;;7.70;5.10;;;4.90;99.90;;;;;;5033205;28;20506;-75
2023/12/14 00:16:00;;;;;;;10.23;4.97;;;4.90;99.90;;;;;;5049917;28;20045;-74
2023/12/14 00:18:26;;;;;;;8.68;4.97;;;4.90;99.90;;;;;;5049724;28;20064;-75
2023/12/14 00:20:52;;;;;;;11.02;6.10;;;4.90;99.90;;;;;;5050497;28;20045;-74
2023/12/14 00:23:18;;;;;;;8.18;5.78;;;4.90;99.90;;;;;;5049368;28;20110;-74
2023/12/14 00:25:44;;;;;;;8.13;5.18;;;4.90;99.90;;;;;;5050619;28;20053;-75
2023/12/14 00:28:09;;;;;;;11.43;6.85;;;4.90;99.90;;;;;;5032367;28;20045;-75
2023/12/14 00:30:35;;;;;;;9.18;6.03;;;4.90;99.90;;;;;;5050218;28;20075;-75
2023/12/14 00:33:01;;;;;;;11.80;6.47;;;4.90;99.90;;;;;;5029640;28;20049;-74
2023/12/14 00:35:26;;;;;;;11.52;6.18;;;4.90;99.90;;;;;;5023438;28;20160;-74
2023/12/14 00:37:52;;;;;;;9.07;6.25;;;4.90;99.90;;;;;;5029659;28;20488;-75
2023/12/14 00:40:18;;;;;;;7.22;4.55;;;4.90;99.90;;;;;;5036395;28;20439;-75
2023/12/14 00:42:43;;;;;;;9.05;5.28;;;4.90;99.90;;;;;;5029633;28;20044;-74
2023/12/14 00:45:09;;;;;;;8.57;5.32;;;4.90;99.90;;;;;;5053728;28;20052;-75
2023/12/14 00:47:35;;;;;;;9.38;5.50;;;5.10;99.90;;;;;;5053929;28;20492;-75
2023/12/14 00:50:01;;;;;;;10.45;5.80;;;4.90;99.90;;;;;;5054227;28;20045;-75
2023/12/14 00:52:27;;;;;;;8.80;6.30;;;4.90;99.90;;;;;;5052391;28;20063;-73
2023/12/14 00:54:52;;;;;;;10.05;5.63;;;4.90;99.90;;;;;;5039328;28;20072;-75
2023/12/14 00:57:18;;;;;;;10.57;6.95;;;4.90;99.90;;;;;;5061202;28;20048;-74
2023/12/14 00:59:44;;;;;;;11.50;6.88;;;4.90;99.90;;;;;;5053767;28;20128;-74
2023/12/14 01:02:09;;;;;;;11.80;7.18;;;4.90;99.90;;;;;;5053695;28;20518;-75
2023/12/14 01:04:35;;;;;;;14.85;7.28;;;4.90;99.90;;;;;;5043590;28;20046;-75
2023/12/14 01:07:01;;;;;;;12.05;6.90;;;4.90;99.90;;;;;;5033232;28;20534;-75
2023/12/14 01:09:27;;;;;;;14.68;7.55;;;4.90;99.90;;;;;;5017098;28;20057;-75
2023/12/14 01:11:52;;;;;;;13.40;7.60;;;4.90;99.90;;;;;;5032789;28;20045;-75
2023/12/14 01:14:18;;;;;;;16.40;7.90;;;4.90;99.90;;;;;;5044081;28;20049;-76
2023/12/14 01:16:44;;;;;;;16.13;8.27;;;4.90;99.90;;;;;;5036501;28;20454;-75
2023/12/14 01:19:09;;;;;;;18.20;8.43;;;4.80;99.90;;;;;;5047265;28;20061;-76
2023/12/14 01:21:35;;;;;;;15.88;8.57;;;4.90;99.90;;;;;;5053018;28;20056;-75
2023/12/14 01:24:01;;;;;;;12.52;8.07;;;4.80;99.90;;;;;;5051698;28;20072;-75
2023/12/14 01:26:27;;;;;;;17.02;8.70;;;4.90;99.90;;;;;;5047778;28;20071;-75
2023/12/14 01:28:53;;;;;;;13.40;8.57;;;4.80;99.90;;;;;;5053434;28;20048;-75
2023/12/14 01:31:19;;;;;;;17.02;9.23;;;4.90;99.90;;;;;;5045840;28;20055;-73
2023/12/14 01:33:47;;;;;;;15.85;8.75;;;5.00;99.90;;;;;;5033258;28;20488;-75
2023/12/14 01:36:23;;;;;;;17.35;9.13;;;4.90;99.90;;;;;;5042324;28;20400;-75
2023/12/14 01:38:50;;;;;;;16.90;8.77;;;4.90;99.90;;;;;;5046140;28;20116;-76
2023/12/14 01:41:15;;;;;;;17.48;8.90;;;4.90;99.90;;;;;;5036524;28;20388;-76
2023/12/14 01:43:41;;;;;;;17.67;9.35;;;4.90;99.90;;;;;;5051972;28;20041;-74
2023/12/14 01:46:07;;;;;;;16.48;9.00;;;5.00;99.90;;;;;;5048594;28;20045;-75
2023/12/14 01:48:32;;;;;;;13.57;8.60;;;4.90;99.90;;;;;;5016102;28;20045;-76
2023/12/14 01:50:58;;;;;;;13.13;8.38;;;4.90;99.90;;;;;;5047989;28;20134;-76
2023/12/14 01:53:24;;;;;;;14.70;8.73;;;4.80;99.90;;;;;;5032872;28;20065;-75
2023/12/14 01:55:49;;;;;;;13.63;8.93;;;4.80;99.90;;;;;;5049041;28;20052;-76
2023/12/14 01:58:15;;;;;;;14.93;8.20;;;4.80;99.90;;;;;;5040671;28;20045;-75
2023/12/14 02:00:56;;;;;;;16.52;8.45;;;4.80;99.90;;;;;;5052558;28;20037;-76
2023/12/14 02:03:21;;;;;;;14.90;8.45;;;4.90;99.90;;;;;;5052099;28;20377;-76
2023/12/14 02:05:47;;;;;;;15.40;8.30;;;4.90;99.90;;;;;;5034251;28;20051;-75
2023/12/14 02:08:13;;;;;;;16.90;7.95;;;4.90;99.90;;;;;;5034909;28;20068;-76
2023/12/14 02:10:38;;;;;;;17.33;8.60;;;5.10;99.90;;;;;;5051845;28;20046;-76
2023/12/14 02:13:04;;;;;;;11.90;7.60;;;4.80;99.90;;;;;;5035903;28;20057;-76
2023/12/14 02:15:30;;;;;;;13.35;8.15;;;4.80;99.90;;;;;;5052296;28;20041;-76
2023/12/14 02:17:55;;;;;;;14.75;8.15;;;4.90;99.90;;;;;;5039288;28;20496;-77
2023/12/14 02:20:22;;;;;;;16.65;8.40;;;4.90;99.90;;;;;;5030978;28;20124;-73
2023/12/14 02:22:58;;;;;;;11.80;7.25;;;4.90;99.90;;;;;;5052601;28;20090;-75
2023/12/14 02:25:24;;;;;;;14.77;8.10;;;5.00;99.90;;;;;;5051770;28;20053;-76
2023/12/14 02:27:53;;;;;;;15.30;8.32;;;4.90;99.90;;;;;;5050043;28;20049;-76
2023/12/14 02:30:19;;;;;;;16.15;8.27;;;4.80;99.90;;;;;;5039875;28;20100;-77
2023/12/14 02:32:45;;;;;;;11.82;7.75;;;4.90;99.90;;;;;;5067388;28;20041;-76
2023/12/14 02:35:11;;;;;;;15.95;7.80;;;4.90;99.90;;;;;;5052332;28;20136;-76
2023/12/14 02:37:37;;;;;;;15.70;8.40;;;4.90;99.90;;;;;;5049252;28;20132;-76
2023/12/14 02:40:04;;;;;;;15.77;7.70;;;4.90;99.90;;;;;;5033634;28;20475;-76
2023/12/14 02:42:30;;;;;;;15.75;8.02;;;4.90;99.90;;;;;;5028650;28;20084;-75
2023/12/14 02:44:56;;;;;;;15.50;7.70;;;4.90;99.90;;;;;;5035286;28;20045;-76
2023/12/14 02:47:22;;;;;;;15.35;8.23;;;4.90;99.90;;;;;;5042654;28;20051;-76
2023/12/14 02:49:48;;;;;;;14.48;7.78;;;5.10;99.90;;;;;;5034445;28;20132;-76
2023/12/14 02:52:14;;;;;;;14.85;8.32;;;4.90;99.90;;;;;;5044808;28;20128;-76
2023/12/14 02:54:40;;;;;;;13.25;7.35;;;4.90;99.90;;;;;;5049186;28;20175;-76
2023/12/14 02:57:06;;;;;;;15.77;7.25;;;4.90;99.90;;;;;;5051076;28;20041;-76
2023/12/14 02:59:32;;;;;;;17.58;8.70;;;4.90;99.90;;;;;;5046362;28;20033;-76
2023/12/14 03:01:57;;;;;;;16.73;8.30;;;4.90;99.90;;;;;;5041652;28;20033;-76
2023/12/14 03:04:23;;;;;;;14.40;8.13;;;4.90;99.90;;;;;;5051843;28;20105;-75
2023/12/14 03:06:49;;;;;;;14.95;7.45;;;5.00;99.90;;;;;;5047427;28;20053;-76
2023/12/14 03:09:14;;;;;;;11.85;7.68;;;4.90;99.90;;;;;;5039203;28;20359;-75
2023/12/14 03:11:40;;;;;;;16.70;7.97;;;4.90;99.90;;;;;;5040067;28;20041;-75
2023/12/14 03:14:06;;;;;;;14.80;7.90;;;4.90;99.90;;;;;;5049646;28;20078;-76
2023/12/14 03:16:32;;;;;;;15.38;7.63;;;4.90;99.90;;;;;;5032544;28;20139;-75
2023/12/14 03:18:57;;;;;;;17.35;8.55;;;4.90;99.90;;;;;;5035566;28;20433;-76
2023/12/14 03:21:23;;;;;;;16.85;8.68;;;4.90;99.90;;;;;;5034570;28;20064;-76
2023/12/14 03:23:50;;;;;;;15.70;8.65;;;4.90;99.90;;;;;;5050392;28;20523;-76
2023/12/14 03:26:16;;;;;;;17.25;8.40;;;4.90;99.90;;;;;;5047717;28;20480;-76
2023/12/14 03:28:41;;;;;;;13.38;7.55;;;4.90;99.90;;;;;;5021189;28;20048;-75
2023/12/14 03:31:10;;;;;;;17.52;8.50;;;4.90;99.90;;;;;;5049728;28;20040;-76
2023/12/14 03:33:36;;;;;;;14.23;7.95;;;4.90;99.90;;;;;;5050873;28;20083;-76
2023/12/14 03:36:02;;;;;;;17.83;9.23;;;4.80;99.90;;;;;;5034122;28;20568;-76
2023/12/14 03:38:28;;;;;;;20.67;8.82;;;4.90;99.90;;;;;;5048531;28;20052;-76
2023/12/14 03:40:54;;;;;;;18.70;9.15;;;4.90;99.90;;;;;;5044748;28;20099;-76
2023/12/14 03:43:19;;;;;;;18.90;9.38;;;5.00;99.90;;;;;;5051283;28;20467;-76
2023/12/14 03:45:45;;;;;;;17.02;9.23;;;4.90;99.90;;;;;;5034018;28;20049;-76
2023/12/14 03:48:11;;;;;;;16.35;9.50;;;4.90;99.90;;;;;;5050540;28;20041;-76
2023/12/14 03:50:36;;;;;;;16.52;9.20;;;4.90;99.90;;;;;;5028672;28;20057;-77
2023/12/14 03:53:02;;;;;;;22.48;9.32;;;4.90;99.90;;;;;;5050408;28;20479;-75
2023/12/14 03:55:28;;;;;;;18.70;10.38;;;4.90;99.90;;;;;;5051092;28;20048;-76
2023/12/14 03:57:53;;;;;;;18.00;9.30;;;4.90;99.90;;;;;;5050519;28;20121;-76
2023/12/14 04:00:19;;;;;;;17.33;9.57;;;5.30;99.90;;;;;;5053880;28;20124;-75
2023/12/14 04:02:45;;;;;;;18.70;10.02;;;4.80;99.90;;;;;;5046817;28;20044;-75
2023/12/14 04:05:10;;;;;;;14.82;8.57;;;4.90;99.90;;;;;;5033927;28;20049;-75
2023/12/14 04:07:40;;;;;;;19.48;10.05;;;4.80;99.90;;;;;;5049937;28;20135;-77
2023/12/14 04:10:07;;;;;;;17.20;9.55;;;4.90;99.90;;;;;;5033163;28;20496;-75
2023/12/14 04:12:33;;;;;;;15.02;9.98;;;4.80;99.90;;;;;;5040705;28;20052;-76
2023/12/14 04:14:58;;;;;;;24.17;10.63;;;4.80;99.90;;;;;;5030304;28;20061;-76
2023/12/14 04:17:24;;;;;;;24.08;10.80;;;4.80;99.90;;;;;;5049782;28;20048;-75
2023/12/14 04:19:50;;;;;;;19.23;9.93;;;4.80;99.90;;;;;;5049975;28;20052;-75
2023/12/14 04:22:16;;;;;;;18.90;9.60;;;5.00;99.90;;;;;;5022532;28;20041;-76
2023/12/14 04:24:41;;;;;;;18.85;10.60;;;4.80;99.90;;;;;;5033738;28;20084;-76
2023/12/14 04:27:07;;;;;;;16.65;10.38;;;5.00;99.90;;;;;;5050335;28;20049;-76
2023/12/14 04:29:33;;;;;;;15.73;9.75;;;4.80;99.90;;;;;;5026680;28;20073;-76
2023/12/14 04:31:58;;;;;;;19.50;9.93;;;4.80;99.90;;;;;;5025945;28;20049;-75
2023/12/14 04:34:24;;;;;;;19.20;10.10;;;4.80;99.90;;;;;;5050341;28;20128;-75
2023/12/14 04:36:49;;;;;;;15.20;10.13;;;4.90;99.90;;;;;;5049821;28;20434;-75
2023/12/14 04:39:16;;;;;;;17.38;10.05;;;4.80;99.90;;;;;;5017199;28;20395;-75
2023/12/14 04:41:42;;;;;;;18.85;10.80;;;4.80;99.90;;;;;;5047302;28;20037;-76
2023/12/14 04:44:10;;;;;;;18.77;10.15;;;4.80;99.90;;;;;;5049680;28;20052;-74
2023/12/14 04:46:35;;;;;;;20.65;10.68;;;4.80;99.90;;;;;;5047596;28;20036;-76
2023/12/14 04:49:01;;;;;;;19.77;9.80;;;4.80;99.90;;;;;;5047152;28;20125;-76
2023/12/14 04:51:27;;;;;;;17.23;9.63;;;4.80;99.90;;;;;;5045945;28;20041;-75
2023/12/14 04:53:53;;;;;;;17.65;10.38;;;4.80;99.90;;;;;;5048734;28;20480;-76
2023/12/14 04:56:18;;;;;;;20.23;10.15;;;4.80;99.90;;;;;;5023246;28;20048;-76
2023/12/14 04:58:46;;;;;;;20.55;9.85;;;4.80;99.90;;;;;;5050730;28;20055;-75
2023/12/14 05:01:11;;;;;;;18.48;10.15;;;4.80;99.90;;;;;;5049273;28;20515;-76
2023/12/14 05:03:37;;;;;;;16.70;10.10;;;4.80;99.90;;;;;;5046819;28;20112;-76
2023/12/14 05:06:03;;;;;;;16.17;9.88;;;4.90;99.90;;;;;;5040677;28;20052;-75
2023/12/14 05:08:28;;;;;;;18.83;10.13;;;4.80;99.90;;;;;;5050222;28;20061;-76
2023/12/14 05:10:54;;;;;;;17.92;10.15;;;4.80;99.90;;;;;;5050457;28;20099;-76
2023/12/14 05:13:20;;;;;;;14.48;9.88;;;4.90;99.90;;;;;;5031395;28;20056;-77
2023/12/14 05:15:45;;;;;;;18.80;10.50;;;4.90;99.90;;;;;;5038213;28;20503;-76
2023/12/14 05:18:11;;;;;;;17.27;10.85;;;4.90;99.90;;;;;;5031508;28;20123;-76
2023/12/14 05:20:37;;;;;;;20.40;10.73;;;4.90;99.90;;;;;;5049743;28;20487;-76
2023/12/14 05:23:03;;;;;;;20.15;10.63;;;4.90;99.90;;;;;;5038647;28;20049;-75
2023/12/14 05:25:29;;;;;;;18.42;9.98;;;4.90;99.90;;;;;;5044394;28;20045;-77
2023/12/14 05:27:54;;;;;;;20.58;9.98;;;4.90;99.90;;;;;;5041119;28;20416;-76
2023/12/14 05:30:20;;;;;;;19.35;10.07;;;4.90;99.90;;;;;;5022866;28;20481;-75
2023/12/14 05:32:46;;;;;;;17.15;9.70;;;4.90;99.90;;;;;;5020411;28;20053;-75
2023/12/14 05:35:12;;;;;;;18.85;10.27;;;4.90;99.90;;;;;;5031271;28;20068;-76
2023/12/14 05:37:41;;;;;;;16.23;9.90;;;4.90;99.90;;;;;;5039640;28;20053;-75
2023/12/14 05:40:09;;;;;;;21.77;10.13;;;5.10;99.90;;;;;;5021703;28;20869;-76
2023/12/14 05:42:34;;;;;;;15.48;9.98;;;4.90;99.90;;;;;;5033692;28;20057;-76
2023/12/14 05:45:00;;;;;;;17.83;10.32;;;4.80;99.90;;;;;;5029139;28;20367;-76
2023/12/14 05:47:30;;;;;;;16.08;10.38;;;5.00;99.90;;;;;;5043407;28;20478;-76
2023/12/14 05:49:56;;;;;;;16.90;9.82;;;4.90;99.90;;;;;;5044963;28;20049;-76
2023/12/14 05:52:21;;;;;;;19.85;10.68;;;4.90;99.90;;;;;;5053089;28;20128;-76
2023/12/14 05:54:47;;;;;;;19.13;9.85;;;5.00;99.90;;;;;;5043159;28;20077;-76
2023/12/14 05:57:12;;;;;;;20.75;10.13;;;4.90;99.90;;;;;;5048407;28;20056;-75
2023/12/14 05:59:39;;;;;;;19.63;10.52;;;4.90;99.90;;;;;;5044291;28;20072;-77
2023/12/14 06:02:06;;;;;;;17.45;9.82;;;4.90;99.90;;;;;;5035838;28;20049;-76
2023/12/14 06:04:32;;;;;;;17.80;10.52;;;4.90;99.90;;;;;;5050617;28;20064;-76
2023/12/14 06:06:58;;;;;;;23.67;10.02;;;4.90;99.90;;;;;;5025369;28;20053;-76
2023/12/14 06:09:31;;;;;;;16.92;9.95;;;4.90;99.90;;;;;;5032796;28;20566;-77
2023/12/14 06:11:57;;;;;;;21.17;9.63;;;4.90;99.90;;;;;;5051625;28;20045;-75
2023/12/14 06:14:23;;;;;;;17.98;10.60;;;4.90;99.90;;;;;;5050195;28;20089;-76
2023/12/14 06:16:49;;;;;;;19.95;11.48;;;4.90;99.90;;;;;;5050655;28;20052;-76
2023/12/14 06:19:14;;;;;;;19.70;10.68;;;4.90;99.90;;;;;;5034787;28;20136;-75
2023/12/14 06:21:40;;;;;;;18.67;10.20;;;5.00;99.90;;;;;;5044801;28;20472;-75
2023/12/14 06:24:06;;;;;;;15.75;9.85;;;4.90;99.90;;;;;;5032999;28;20076;-75
2023/12/14 06:26:32;;;;;;;17.95;10.40;;;4.90;99.90;;;;;;5035408;28;20041;-76
2023/12/14 06:28:57;;;;;;;17.20;9.73;;;4.90;99.90;;;;;;5042117;28;20068;-75
2023/12/14 06:31:23;;;;;;;17.75;10.07;;;4.90;99.90;;;;;;5022114;28;20090;-75
2023/12/14 06:33:49;;;;;;;18.20;9.52;;;4.90;99.90;;;;;;5033640;28;20056;-75
2023/12/14 06:36:18;;;;;;;18.73;9.45;;;4.90;99.90;;;;;;5050994;28;20955;-76
2023/12/14 06:38:44;;;;;;;17.20;9.20;;;4.90;99.90;;;;;;5061384;28;20052;-75
2023/12/14 06:41:21;;;;;;;17.60;9.63;;;4.90;99.90;;;;;;5052712;28;20049;-76
2023/12/14 06:43:47;;;;;;;22.77;9.95;;;4.90;99.90;;;;;;5051216;28;20143;-77
2023/12/14 06:46:13;;;;;;;20.48;9.30;;;4.90;99.90;;;;;;5050825;28;20053;-75
2023/12/14 06:48:38;;;;;;;20.13;9.55;;;4.90;99.90;;;;;;5051287;28;20052;-76
2023/12/14 06:51:04;;;;;;;19.45;9.70;;;4.90;99.90;;;;;;5051262;28;20056;-76
2023/12/14 06:53:30;;;;;;;15.63;10.05;;;4.90;99.90;;;;;;5048051;28;20045;-76
2023/12/14 06:55:55;;;;;;;19.75;9.55;;;4.90;99.90;;;;;;5051309;28;20049;-75
2023/12/14 06:58:21;;;;;;;20.02;10.10;;;4.90;99.90;;;;;;5033865;28;20130;-76
2023/12/14 07:00:47;;;;;;;19.50;10.38;;;4.90;99.90;;;;;;5049390;28;20041;-76
2023/12/14 07:03:14;;;;;;;18.30;9.57;;;4.90;99.90;;;;;;5033933;28;20052;-76
2023/12/14 07:05:40;;;;;;;19.42;10.45;;;4.90;99.90;;;;;;5031711;28;20077;-75
2023/12/14 07:08:05;;;;;;;17.67;10.40;;;4.90;99.90;;;;;;5043546;28;20109;-76
2023/12/14 07:10:31;;;;;;;17.52;9.45;;;4.90;99.90;;;;;;5033268;28;20045;-75
2023/12/14 07:12:57;;;;;;;22.38;11.23;;;4.90;99.90;;;;;;5046893;28;20037;-75
2023/12/14 07:15:22;;;;;;;19.70;10.23;;;4.90;99.90;;;;;;5025555;28;20078;-76
2023/12/14 07:17:48;;;;;;;22.23;10.30;;;4.90;99.90;;;;;;5019466;28;20125;-75
2023/12/14 07:20:14;;;;;;;19.20;11.30;;;4.90;99.90;;;;;;5027099;28;20052;-75
2023/12/14 07:22:40;;;;;;;16.60;9.77;;;4.90;99.90;;;;;;5040798;28;20124;-75
2023/12/14 07:25:06;;;;;;;23.77;10.45;;;4.90;99.90;;;;;;5027093;28;20080;-76
2023/12/14 07:27:31;;;;;;;22.30;10.68;;;4.90;99.90;;;;;;5031911;28;20064;-75
2023/12/14 07:29:57;;;;;;;20.38;10.18;;;4.90;99.90;;;;;;5030613;28;20480;-74
2023/12/14 07:32:23;;;;;;;23.88;10.85;;;4.90;99.90;;;;;;5039653;28;20701;-76
2023/12/14 07:34:48;;;;;;;21.05;10.90;;;4.90;99.90;;;;;;5036877;28;20103;-75
2023/12/14 07:37:14;;;;;;;19.60;10.80;;;5.20;99.90;;;;;;5050107;28;20137;-75
2023/12/14 07:39:40;;;;;;;22.23;11.45;;;4.90;99.90;;;;;;5034405;28;20429;-75
2023/12/14 07:42:06;;;;;;;18.33;11.02;;;4.90;99.90;;;;;;5038634;28;20044;-75
2023/12/14 07:44:33;;;;;;;21.75;12.10;;;4.90;99.90;;;;;;5050842;28;20055;-75
2023/12/14 07:47:02;;;;;;;21.30;10.73;;;5.00;99.90;;;;;;5049175;28;20433;-75
2023/12/14 07:49:28;;;;;;;22.08;10.70;;;4.90;99.90;;;;;;5044298;28;20534;-74
2023/12/14 07:51:53;;;;;;;21.73;11.93;;;4.90;99.90;;;;;;5033939;28;20045;-75
2023/12/14 07:54:19;;;;;;;20.25;10.93;;;4.90;99.90;;;;;;5061453;28;20417;-75
2023/12/14 07:56:45;;;;;;;26.40;11.57;;;4.90;99.90;;;;;;5029042;28;20064;-75
2023/12/14 07:59:11;;;;;;;23.05;11.70;;;4.90;99.90;;;;;;5046440;28;20551;-76
2023/12/14 08:01:37;;;;;;;22.70;12.07;;;4.90;99.90;;;;;;5036992;28;20081;-75
2023/12/14 08:04:03;;;;;;;22.45;12.40;;;4.90;99.90;;;;;;5034131;28;20079;-74
2023/12/14 08:06:29;;;;;;;19.58;10.70;;;5.10;99.90;;;;;;5049308;28;20041;-76
2023/12/14 08:08:58;;;;;;;23.10;11.82;;;4.90;99.90;;;;;;5035975;28;20044;-75
2023/12/14 08:11:24;;;;;;;19.88;12.20;;;4.90;99.90;;;;;;5045498;28;20487;-77
2023/12/14 08:13:50;;;;;;;20.95;11.98;;;4.90;99.90;;;;;;5033682;28;20407;-76
2023/12/14 08:16:17;;;;;;;20.58;11.52;;;4.90;99.90;;;;;;5043888;28;20044;-78
2023/12/14 08:18:47;;;;;;;22.63;12.07;;;5.00;99.90;;;;;;5044177;28;20057;-77
2023/12/14 08:21:13;;;;;;;24.05;12.02;;;5.00;99.90;;;;;;5032886;28;20056;-77
2023/12/14 08:23:39;;;;;;;19.58;10.93;;;5.00;99.90;;;;;;5045813;28;20099;-77
2023/12/14 08:26:04;;;;;;;17.83;10.73;;;5.00;99.90;;;;;;5044950;28;20055;-77
2023/12/14 08:28:30;;;;;;;20.65;12.05;;;5.00;99.90;;;;;;5043132;28;20464;-78
2023/12/14 08:31:01;;;;;;;21.85;12.20;;;5.00;99.90;;;;;;5042118;28;20087;-77
2023/12/14 08:33:28;;;;;;;21.33;11.45;;;5.00;99.90;;;;;;5028460;28;20100;-78
2023/12/14 08:35:53;;;;;;;22.13;10.90;;;5.00;99.90;;;;;;5046735;28;20057;-78
2023/12/14 08:38:19;;;;;;;24.05;11.75;;;5.10;99.90;;;;;;5039868;28;20057;-78
2023/12/14 08:40:44;;;;;;;22.95;12.15;;;5.10;99.90;;;;;;5045564;28;20037;-75
2023/12/14 08:43:10;;;;;;;23.23;11.80;;;5.00;99.90;;;;;;5033144;28;20073;-77
2023/12/14 08:45:36;;;;;;;28.23;12.55;;;5.10;99.90;;;;;;5049156;28;20415;-78
2023/12/14 08:48:02;;;;;;;21.77;11.60;;;5.10;99.90;;;;;;5029562;28;20432;-76
2023/12/14 08:50:27;;;;;;;22.55;11.10;;;5.10;99.90;;;;;;5032370;28;20045;-77
2023/12/14 08:52:53;;;;;;;20.65;11.23;;;5.10;99.90;;;;;;5048858;28;20125;-76
2023/12/14 08:55:19;;;;;;;20.23;12.23;;;5.10;99.90;;;;;;5049536;28;20055;-77
2023/12/14 08:57:44;;;;;;;27.83;13.20;;;5.10;99.90;;;;;;5031361;28;20045;-75
2023/12/14 09:00:11;;;;;;;23.45;11.82;;;5.10;99.90;;;;;;5030442;28;20048;-76
2023/12/14 09:02:37;;;;;;;20.10;11.82;;;5.20;99.90;;;;;;5028851;28;20287;-77
2023/12/14 09:05:04;;;;;;;22.45;11.15;;;5.20;99.90;;;;;;5032350;28;20056;-75
2023/12/14 09:07:30;;;;;;;23.85;12.48;;;5.10;99.90;;;;;;5050546;28;20037;-77
2023/12/14 09:09:56;;;;;;;21.80;12.65;;;5.20;99.90;;;;;;5041544;28;20053;-72
2023/12/14 09:12:21;;;;;;;26.95;13.38;;;5.20;99.90;;;;;;5051803;28;20760;-74
2023/12/14 09:14:47;;;;;;;21.20;11.70;;;5.30;99.90;;;;;;5032181;28;20047;-74
2023/12/14 09:17:13;;;;;;;23.10;12.55;;;5.30;99.90;;;;;;5040125;28;20041;-75
2023/12/14 09:19:38;;;;;;;26.05;12.50;;;5.50;99.90;;;;;;5042576;28;20646;-75
2023/12/14 09:22:04;;;;;;;28.63;12.38;;;5.30;99.90;;;;;;5051855;28;20044;-75
2023/12/14 09:24:30;;;;;;;26.00;13.38;;;5.30;99.90;;;;;;5052164;28;20051;-73
2023/12/14 09:26:56;;;;;;;22.42;12.45;;;5.40;99.90;;;;;;5053791;28;20045;-74
2023/12/14 09:29:21;;;;;;;20.95;11.90;;;5.40;99.90;;;;;;5052274;28;20067;-73
2023/12/14 09:31:47;;;;;;;23.30;12.18;;;5.40;99.90;;;;;;5053521;28;20044;-74
2023/12/14 09:34:13;;;;;;;25.92;11.68;;;5.40;99.90;;;;;;5050675;28;20037;-74
2023/12/14 09:36:40;;;;;;;22.20;11.60;;;5.40;99.90;;;;;;5052156;28;20491;-74
2023/12/14 09:39:10;;;;;;;19.02;10.90;;;5.40;99.90;;;;;;5051345;28;20041;-73
2023/12/14 09:41:39;;;;;;;16.30;11.15;;;5.30;99.90;;;;;;5053080;28;20547;-74
2023/12/14 09:44:06;;;;;;;21.27;11.65;;;5.40;99.90;;;;;;5052184;28;20049;-73
2023/12/14 09:46:36;;;;;;;22.92;11.30;;;5.40;99.90;;;;;;5036031;28;20041;-74
2023/12/14 09:49:04;;;;;;;20.75;11.43;;;5.30;99.90;;;;;;5053112;28;20383;-72
2023/12/14 09:51:30;;;;;;;20.70;10.90;;;5.30;99.90;;;;;;5052879;28;20124;-74
2023/12/14 09:53:59;;;;;;;22.70;11.77;;;5.40;99.90;;;;;;5042161;28;20081;-73
2023/12/14 09:56:26;;;;;;;18.80;10.93;;;5.30;99.90;;;;;;5046147;28;20052;-73
2023/12/14 09:58:51;;;;;;;18.15;11.23;;;5.30;99.90;;;;;;5052701;28;20049;-75
2023/12/14 10:01:27;;;;;;;22.38;12.40;;;5.30;99.90;;;;;;5047936;28;20381;-74
2023/12/14 10:04:13;;;;;;;19.48;11.65;;;5.40;99.90;;;;;;5040273;28;20048;-74
2023/12/14 10:06:40;;;;;;;20.25;10.77;;;5.40;99.90;;;;;;5050920;28;20037;-73
2023/12/14 10:09:13;;;;;;;25.73;12.57;;;5.40;99.90;;;;;;5053992;28;20455;-74
2023/12/14 10:11:43;;;;;;;20.17;11.60;;;5.40;99.90;;;;;;5046230;28;20053;-73
2023/12/14 10:14:22;;;;;;;17.63;11.43;;;5.60;99.90;;;;;;5053524;28;20048;-74
2023/12/14 10:16:49;;;;;;;22.80;11.73;;;5.40;99.90;;;;;;5039730;28;20049;-74
2023/12/14 10:19:17;;;;;;;20.42;11.63;;;5.50;99.90;;;;;;5048412;28;20061;-75
2023/12/14 10:21:43;;;;;;;24.13;12.20;;;5.50;99.90;;;;;;5052796;28;20424;-75
2023/12/14 10:24:09;;;;;;;24.05;13.23;;;5.50;99.90;;;;;;5046851;28;20052;-75
2023/12/14 10:26:35;;;;;;;26.75;12.07;;;5.60;99.90;;;;;;5025808;28;20037;-74
2023/12/14 10:29:04;;;;;;;22.00;10.70;;;5.50;99.90;;;;;;5051839;28;20072;-72
2023/12/14 10:31:31;;;;;;;18.85;11.80;;;5.50;99.90;;;;;;5042297;28;20049;-72
2023/12/14 10:33:56;;;;;;;23.42;12.05;;;5.50;99.90;;;;;;5030721;28;20128;-72
2023/12/14 10:36:25;;;;;;;22.58;12.20;;;5.50;99.90;;;;;;5012662;28;20153;-73
2023/12/14 10:38:57;;;;;;;20.10;11.90;;;5.60;99.90;;;;;;5052560;28;20037;-73
2023/12/14 10:41:24;;;;;;;24.50;12.57;;;5.70;99.90;;;;;;5049262;28;20046;-73
2023/12/14 10:43:54;;;;;;;21.17;13.85;;;5.60;99.90;;;;;;5052167;28;20167;-73
2023/12/14 10:46:20;;;;;;;20.25;12.70;;;5.70;99.90;;;;;;5044854;28;20087;-73
2023/12/14 10:48:50;;;;;;;21.00;12.73;;;5.70;99.90;;;;;;5033291;28;20045;-73
2023/12/14 10:51:19;;;;;;;20.80;12.45;;;5.80;99.90;;;;;;5052734;28;20191;-72
2023/12/14 10:53:49;;;;;;;25.98;12.23;;;5.80;99.90;;;;;;5047629;28;20042;-73
2023/12/14 10:56:16;;;;;;;24.02;13.27;;;5.90;99.90;;;;;;5033649;28;20128;-73
2023/12/14 10:58:53;;;;;;;20.67;12.07;;;5.90;99.90;;;;;;5032715;28;20045;-73
2023/12/14 11:01:21;;;;;;;26.83;13.15;;;5.90;99.90;;;;;;5039060;28;20080;-73
2023/12/14 11:03:49;;;;;;;23.00;11.80;;;6.20;99.90;;;;;;4997954;28;20056;-73
2023/12/14 11:06:29;;;;;;;21.60;12.18;;;6.00;99.90;;;;;;5047799;28;20483;-73
2023/12/14 11:09:01;;;;;;;25.38;13.27;;;6.10;99.90;;;;;;5043440;28;20044;-72
2023/12/14 11:11:30;;;;;;;19.13;11.45;;;6.10;99.90;;;;;;5034587;28;20049;-73
2023/12/14 11:13:56;;;;;;;26.40;12.77;;;6.20;99.90;;;;;;5045736;28;20057;-72
2023/12/14 11:16:31;;;;;;;22.63;12.32;;;6.20;99.90;;;;;;5039222;28;20041;-74
2023/12/14 11:19:23;;;;;;;19.75;12.02;;;6.20;99.90;;;;;;5041833;28;20080;-73
2023/12/14 11:21:49;;;;;;;20.83;11.57;;;6.20;99.90;;;;;;5029184;28;20049;-73
2023/12/14 11:24:14;;;;;;;22.30;11.45;;;6.30;99.90;;;;;;5032230;28;20547;-73
2023/12/14 11:26:40;;;;;;;23.52;12.35;;;6.30;99.90;;;;;;5043431;28;20053;-73
2023/12/14 11:29:09;;;;;;;21.65;11.82;;;6.30;99.90;;;;;;5045876;28;20415;-73
2023/12/14 11:31:35;;;;;;;19.77;11.85;;;6.30;99.90;;;;;;5035571;28;20625;-72
2023/12/14 11:34:03;;;;;;;20.70;10.50;;;6.30;99.90;;;;;;5044199;28;20047;-72
2023/12/14 11:36:29;;;;;;;25.33;11.95;;;6.30;99.90;;;;;;5049026;28;20124;-74
2023/12/14 11:38:55;;;;;;;22.85;10.75;;;6.40;99.90;;;;;;5043568;28;20132;-73
2023/12/14 11:41:25;;;;;;;23.75;11.50;;;6.40;99.90;;;;;;5049833;28;20051;-72
2023/12/14 11:43:51;;;;;;;23.52;10.82;;;6.30;99.90;;;;;;5049475;28;20056;-72
2023/12/14 11:46:18;;;;;;;20.55;11.10;;;6.30;99.90;;;;;;5048477;28;20053;-73
2023/12/14 11:48:45;;;;;;;17.70;10.63;;;6.40;99.90;;;;;;5045068;28;20045;-74
2023/12/14 11:51:12;;;;;;;19.50;11.30;;;6.40;99.90;;;;;;5013769;28;20053;-73
2023/12/14 11:53:42;;;;;;;18.70;10.63;;;6.40;99.90;;;;;;5045886;28;20049;-72
2023/12/14 11:56:08;;;;;;;18.52;10.32;;;6.40;99.90;;;;;;5050006;28;20041;-75
2023/12/14 11:58:34;;;;;;;15.85;9.65;;;6.40;99.90;;;;;;5035088;28;20377;-73
2023/12/14 12:01:21;;;;;;;21.77;10.70;;;6.40;99.90;;;;;;5047178;28;20064;-72
2023/12/14 12:03:47;;;;;;;17.33;10.10;;;6.40;99.90;;;;;;5049640;28;20487;-73
2023/12/14 12:06:23;;;;;;;15.52;9.30;;;6.40;99.90;;;;;;5030753;28;20045;-72
2023/12/14 12:08:49;;;;;;;21.08;10.00;;;6.40;99.90;;;;;;5045491;28;20048;-73
2023/12/14 12:11:22;;;;;;;17.83;9.23;;;6.50;99.90;;;;;;5050605;28;20440;-72
2023/12/14 12:13:52;;;;;;;17.08;9.20;;;6.50;99.90;;;;;;5028249;28;20049;-73
2023/12/14 12:16:18;;;;;;;15.32;9.25;;;6.50;99.90;;;;;;5047582;28;20072;-74
2023/12/14 12:18:44;;;;;;;14.85;8.95;;;6.50;99.90;;;;;;5046988;28;20053;-72
2023/12/14 12:21:11;;;;;;;15.23;8.82;;;6.50;99.90;;;;;;5041004;28;20049;-72
2023/12/14 12:23:38;;;;;;;18.83;9.70;;;6.50;99.90;;;;;;5049235;28;20075;-73
2023/12/14 12:26:04;;;;;;;17.75;8.93;;;6.50;99.90;;;;;;5046401;28;20095;-72
2023/12/14 12:28:31;;;;;;;18.17;9.82;;;6.50;99.90;;;;;;5035477;28;20551;-73
2023/12/14 12:30:57;;;;;;;15.27;8.63;;;6.50;99.90;;;;;;5049222;28;20049;-72
2023/12/14 12:33:23;;;;;;;17.20;9.45;;;6.40;99.90;;;;;;5046388;28;20049;-72
2023/12/14 12:35:49;;;;;;;16.20;9.88;;;6.40;99.90;;;;;;5046801;28;20041;-73
2023/12/14 12:38:16;;;;;;;15.85;9.65;;;6.50;99.90;;;;;;5038016;28;20116;-73
2023/12/14 12:40:42;;;;;;;16.60;10.32;;;6.40;99.90;;;;;;5039380;28;20059;-74